LiveATC.Net - Listen to live air traffic control over the Internet!


ICAO: SUAA  IATA:   Airport: Angel S. Adami Airport
City: Montevideo
Country: Uruguay   Continent: South America
SUMU METAR Weather: SUMU 221900Z 15008KT 0800 R25/1200U R19/1800U -DZ FG OVC002 14/14 Q1007 TEMPO FG
SUAA ADS-B Flight Tracking  (ADSBExchange)
SUAA Flight Activity (FlightAware)

SUAA Tower
Feed Status: UP   Listeners: 0
Listen in your browser - HTML5 player (in browser, HTML5)
Click here to listen with your own player (launches your MP3 player)
Archive Access: SUAA Tower
FacilityFrequency
Adami Tower118.400
Adami Tower (backup)122.100
Emergency/Guard121.500
Feed provided by:

Volemos.org

Aviación Uruguaya - Volemos.com.uy


NOTICE

Unauthorized use prohibited. See LiveATC.net Terms of Service


Airport/ARTCC Code
Frequency Search
(e.g., 124.400, 128.75)
Site-wide search
 


Browse Feeds
Top 50 Feeds
HF Oceanic Feeds
Coverage Map
Bad Weather Areas

LiveATC FAQ

Increase Coverage

Contact LiveATC.net
Press Inquiries

LiveATC on iPhone
LiveATC on Android

LiveATC Mobile
(Mobile browser)

ATC Audio Archives
Interesting Recordings

LiveATC Forums


Home Page
About LiveATC.net


Terms of Use
Privacy Policy

AIRMETs/SIGMETs

FAA Airport Status
NAS Status
Arrival Demand


Server Software By:
Icecast.org
Liquidsoap